Time;durP1;ratioP1;P1;durP2;ratioP2;P2;SDS_P1;SDS_P2;PMS_P1;PMS_P2;Temp;Humidity;BMP_temperature;BMP_pressure;BME280_temperature;BME280_humidity;BME280_pressure;Samples;Min_cycle;Max_cycle;Signal;HPM_P1;HPM_P2
2022/06/06 00:01:13;;;;;;;;;;;21.70;99.90;;;;;;5071300;28;19917;-72
2022/06/06 00:03:39;;;;;;;;;;;21.50;99.90;;;;;;5059988;28;19977;-72
2022/06/06 00:06:07;;;;;;;;;;;21.40;99.90;;;;;;5071781;28;19919;-70
2022/06/06 00:08:33;;;;;;;;;;;21.50;99.90;;;;;;5075023;28;19934;-71
2022/06/06 00:10:59;;;;;;;;;;;21.50;99.90;;;;;;5071550;28;19908;-70
2022/06/06 00:13:24;;;;;;;;;;;21.50;99.90;;;;;;5073690;28;20028;-71
2022/06/06 00:15:50;;;;;;;;;;;21.30;99.90;;;;;;5071074;28;20019;-71
2022/06/06 00:18:15;;;;;;;;;;;21.10;99.90;;;;;;5081872;28;20249;-72
2022/06/06 00:20:41;;;;;;;;;;;21.00;99.90;;;;;;5064478;28;19951;-72
2022/06/06 00:23:06;;;;;;;;;;;20.90;99.90;;;;;;5086442;28;19918;-72
2022/06/06 00:25:32;;;;;;;;;;;20.80;99.90;;;;;;5083846;28;20381;-73
2022/06/06 00:27:58;;;;;;;;;;;20.70;99.90;;;;;;5066930;28;19970;-71
2022/06/06 00:30:23;;;;;;;;;;;20.70;99.90;;;;;;5061211;28;20372;-70
2022/06/06 00:35:33;;;;;;;;;;;20.60;99.90;;;;;;5077261;28;20404;-71
2022/06/06 00:37:59;;;;;;;;;;;20.60;99.90;;;;;;5068334;28;19940;-71
2022/06/06 00:40:26;;;;;;;;;;;20.70;99.90;;;;;;5060805;28;19947;-72
2022/06/06 00:42:51;;;;;;;;;;;20.50;99.90;;;;;;5065364;28;19928;-72
2022/06/06 00:45:23;;;;;;;;;;;20.60;99.90;;;;;;5068482;28;19978;-71
2022/06/06 00:48:07;;;;;;;;;;;20.60;99.90;;;;;;5065406;28;19912;-70
2022/06/06 00:50:33;;;;;;;;;;;20.60;99.90;;;;;;5062293;28;19921;-70
2022/06/06 00:53:00;;;;;;;;;;;20.80;99.90;;;;;;5059645;28;20536;-71
2022/06/06 00:55:28;;;;;;;;;;;21.00;99.90;;;;;;5066521;28;19912;-71
2022/06/06 00:58:14;;;;;;;;;;;21.20;99.90;;;;;;5091655;28;19912;-70
2022/06/06 01:00:41;;;;;;;;;;;21.30;99.90;;;;;;5089809;28;19939;-70
2022/06/06 01:03:07;;;;;;;;;;;21.40;99.90;;;;;;5065882;28;19912;-70
2022/06/06 01:05:33;;;;;;;;;;;21.40;99.90;;;;;;5064056;28;19920;-71
2022/06/06 01:07:59;;;;;;;;;;;21.30;99.90;;;;;;5066334;28;19912;-70
2022/06/06 01:10:25;;;;;;;;;;;21.40;99.90;;;;;;5069662;28;19919;-72
2022/06/06 01:12:53;;;;;;;;;;;21.50;99.90;;;;;;5066363;28;19912;-71
2022/06/06 01:15:21;;;;;;;;;;;21.50;99.90;;;;;;5066411;28;19920;-72
2022/06/06 01:17:50;;;;;;;;;;;21.50;99.90;;;;;;5065031;28;19966;-70
2022/06/06 01:20:15;;;;;;;;;;;21.50;99.90;;;;;;5063832;28;19944;-72
2022/06/06 01:23:07;;;;;;;;;;;21.50;99.90;;;;;;5064611;28;19968;-71
2022/06/06 01:25:48;;;;;;;;;;;21.50;99.90;;;;;;5074162;28;19960;-72
2022/06/06 01:28:16;;;;;;;;;;;21.40;99.90;;;;;;5054699;28;19913;-71
2022/06/06 01:30:46;;;;;;;;;;;21.10;99.90;;;;;;5065800;28;19974;-71
2022/06/06 01:33:12;;;;;;;;;;;21.00;99.90;;;;;;5069829;28;19920;-72
2022/06/06 01:35:40;;;;;;;;;;;20.90;99.90;;;;;;5069994;28;19923;-71
2022/06/06 01:38:06;;;;;;;;;;;20.70;99.90;;;;;;5068368;28;19919;-70
2022/06/06 01:40:47;;;;;;;;;;;20.60;99.90;;;;;;5059299;28;19958;-70
2022/06/06 01:43:15;;;;;;;;;;;20.60;99.90;;;;;;5066550;28;19963;-71
2022/06/06 01:45:43;;;;;;;;;;;20.70;99.90;;;;;;5066148;28;19916;-68
2022/06/06 01:48:14;;;;;;;;;;;20.70;99.90;;;;;;5059740;28;19912;-70
2022/06/06 01:50:41;;;;;;;;;;;20.80;99.90;;;;;;5064818;28;19912;-69
2022/06/06 01:53:09;;;;;;;;;;;20.90;99.90;;;;;;5056716;28;19912;-73
2022/06/06 01:55:36;;;;;;;;;;;21.00;99.90;;;;;;5064432;28;20062;-69
2022/06/06 01:58:02;;;;;;;;;;;21.10;99.90;;;;;;5055087;28;19912;-70
2022/06/06 02:00:30;;;;;;;;;;;21.00;99.90;;;;;;5056015;28;19912;-71
2022/06/06 02:02:55;;;;;;;;;;;21.10;99.90;;;;;;5062285;28;19923;-72
2022/06/06 02:05:21;;;;;;;;;;;21.30;99.90;;;;;;5059631;28;19920;-71
2022/06/06 02:07:46;;;;;;;;;;;21.40;99.90;;;;;;5067649;28;19955;-71
2022/06/06 02:10:13;;;;;;;;;;;21.30;99.90;;;;;;5063039;28;19916;-72
2022/06/06 02:12:40;;;;;;;;;;;21.20;99.90;;;;;;5056112;28;19913;-72
2022/06/06 02:15:07;;;;;;;;;;;21.30;99.90;;;;;;5061692;28;19912;-73
2022/06/06 02:17:33;;;;;;;;;;;21.20;99.90;;;;;;5063110;28;19913;-72
2022/06/06 02:20:01;;;;;;;;;;;21.10;99.90;;;;;;5060662;28;20344;-71
2022/06/06 02:22:27;;;;;;;;;;;21.10;99.90;;;;;;5067549;28;19912;-71
2022/06/06 02:24:53;;;;;;;;;;;21.20;99.90;;;;;;5060809;28;20390;-72
2022/06/06 02:27:18;;;;;;;;;;;21.30;99.90;;;;;;5057942;28;20000;-71
2022/06/06 02:29:44;;;;;;;;;;;21.30;99.90;;;;;;5063726;28;19923;-71
2022/06/06 02:32:11;;;;;;;;;;;21.30;99.90;;;;;;5065778;28;19918;-71
2022/06/06 02:34:37;;;;;;;;;;;21.30;99.90;;;;;;5061377;28;19954;-70
2022/06/06 02:37:03;;;;;;;;;;;21.30;99.90;;;;;;5066194;28;19958;-71
2022/06/06 02:39:29;;;;;;;;;;;21.40;99.90;;;;;;5056639;28;19951;-70
2022/06/06 02:41:54;;;;;;;;;;;21.50;99.90;;;;;;5062401;28;19962;-70
2022/06/06 02:44:20;;;;;;;;;;;21.50;99.90;;;;;;5062802;28;19984;-69
2022/06/06 02:46:47;;;;;;;;;;;21.20;99.90;;;;;;5079749;28;19912;-71
2022/06/06 02:49:12;;;;;;;;;;;21.00;99.90;;;;;;5060412;28;20571;-73
2022/06/06 02:51:38;;;;;;;;;;;20.80;99.90;;;;;;5076230;28;20015;-71
2022/06/06 02:54:04;;;;;;;;;;;20.70;99.90;;;;;;5081648;28;19916;-71
2022/06/06 02:56:29;;;;;;;;;;;20.80;99.90;;;;;;5062643;28;19924;-71
2022/06/06 02:58:57;;;;;;;;;;;20.60;99.90;;;;;;5071693;28;19912;-72
2022/06/06 03:01:22;;;;;;;;;;;20.50;99.90;;;;;;5069096;28;20046;-72
2022/06/06 03:03:48;;;;;;;;;;;20.40;99.90;;;;;;5081953;28;19950;-71
2022/06/06 03:06:14;;;;;;;;;;;20.40;99.90;;;;;;5068683;28;20380;-72
2022/06/06 03:08:52;;;;;;;;;;;20.50;99.90;;;;;;5082715;28;19912;-71
2022/06/06 03:11:35;;;;;;;;;;;20.40;99.90;;;;;;5067539;28;19912;-74
2022/06/06 03:14:10;;;;;;;;;;;20.20;99.90;;;;;;5070748;28;20292;-70
2022/06/06 03:22:42;;;;;;;;;;;20.30;99.90;;;;;;5082103;28;20032;-74
2022/06/06 03:25:12;;;;;;;;;;;20.50;99.90;;;;;;5067082;28;20328;-76
2022/06/06 03:27:50;;;;;;;;;;;20.60;99.90;;;;;;5088679;28;19916;-72
2022/06/06 03:30:45;;;;;;;;;;;20.50;99.90;;;;;;5071898;28;20377;-71
2022/06/06 03:33:48;;;;;;;;;;;20.50;99.90;;;;;;5090013;28;19939;-73
2022/06/06 03:36:21;;;;;;;;;;;20.50;99.90;;;;;;5074489;28;19916;-72
2022/06/06 03:39:08;;;;;;;;;;;20.50;99.90;;;;;;5072676;28;19919;-74
2022/06/06 03:41:41;;;;;;;;;;;20.40;99.90;;;;;;5103117;28;19916;-71
2022/06/06 03:44:07;;;;;;;;;;;20.40;99.90;;;;;;5074829;28;19920;-71
2022/06/06 03:49:44;;;;;;;;;;;20.70;99.90;;;;;;5081360;28;19912;-70
2022/06/06 03:52:43;;;;;;;;;;;21.10;99.90;;;;;;5077996;28;19916;-72
2022/06/06 03:55:32;;;;;;;;;;;21.20;99.90;;;;;;5099742;28;19911;-70
2022/06/06 03:58:12;;;;;;;;;;;21.40;99.90;;;;;;5073341;28;20048;-73
2022/06/06 04:00:44;;;;;;;;;;;21.60;99.90;;;;;;5075020;28;19935;-70
2022/06/06 04:03:10;;;;;;;;;;;21.70;99.90;;;;;;5075297;28;19951;-71
2022/06/06 04:05:37;;;;;;;;;;;21.90;99.90;;;;;;5085692;28;19920;-70
2022/06/06 04:08:03;;;;;;;;;;;21.90;99.90;;;;;;5086575;28;19936;-71
2022/06/06 04:10:48;;;;;;;;;;;21.90;99.90;;;;;;5069896;28;19908;-72
2022/06/06 04:13:44;;;;;;;;;;;22.00;99.90;;;;;;5081492;28;19948;-73
2022/06/06 04:16:33;;;;;;;;;;;22.00;99.90;;;;;;5077408;28;19916;-72
2022/06/06 04:19:25;;;;;;;;;;;22.10;99.90;;;;;;5090068;28;19917;-71
2022/06/06 04:21:55;;;;;;;;;;;22.20;99.90;;;;;;5078086;28;19912;-71
2022/06/06 04:24:30;;;;;;;;;;;22.20;99.90;;;;;;5081863;28;20275;-71
2022/06/06 04:27:10;;;;;;;;;;;22.30;99.90;;;;;;5078557;28;19920;-73
2022/06/06 04:29:49;;;;;;;;;;;22.40;99.90;;;;;;5082025;28;19937;-72
2022/06/06 04:32:39;;;;;;;;;;;22.40;99.90;;;;;;5093131;28;20409;-72
2022/06/06 04:35:37;;;;;;;;;;;22.40;99.90;;;;;;5084590;28;19920;-71
2022/06/06 04:38:03;;;;;;;;;;;22.60;99.90;;;;;;5101895;28;19934;-72
2022/06/06 04:40:37;;;;;;;;;;;22.70;99.90;;;;;;5077998;28;19995;-72
2022/06/06 04:43:23;;;;;;;;;;;22.70;99.90;;;;;;5090981;28;19917;-71
2022/06/06 04:45:56;;;;;;;;;;;22.70;99.90;;;;;;5096977;28;19971;-72
2022/06/06 04:48:22;;;;;;;;;;;22.70;99.90;;;;;;5068772;28;20637;-71
2022/06/06 04:51:22;;;;;;;;;;;22.70;99.90;;;;;;5067152;28;19913;-73
2022/06/06 04:54:38;;;;;;;;;;;22.80;99.90;;;;;;5079965;28;19951;-73
2022/06/06 04:57:08;;;;;;;;;;;22.90;99.90;;;;;;5073206;28;20286;-73
2022/06/06 04:59:40;;;;;;;;;;;23.00;99.90;;;;;;5071138;28;19912;-74
2022/06/06 05:02:07;;;;;;;;;;;23.00;99.90;;;;;;5085588;28;19915;-74
2022/06/06 05:04:33;;;;;;;;;;;23.00;99.90;;;;;;5076860;28;19908;-73
2022/06/06 05:07:24;;;;;;;;;;;23.10;99.90;;;;;;5080812;28;20034;-74
2022/06/06 05:09:50;;;;;;;;;;;23.10;99.90;;;;;;5061758;28;19913;-73
2022/06/06 05:12:41;;;;;;;;;;;23.10;99.90;;;;;;5075374;28;19935;-74
2022/06/06 05:15:22;;;;;;;;;;;23.20;99.90;;;;;;5081017;28;19912;-74
2022/06/06 05:18:11;;;;;;;;;;;23.20;99.90;;;;;;5066179;28;20026;-72
2022/06/06 05:21:00;;;;;;;;;;;23.30;99.90;;;;;;5076457;28;19912;-73
2022/06/06 05:23:44;;;;;;;;;;;23.40;99.90;;;;;;5080585;28;19908;-73
2022/06/06 05:26:19;;;;;;;;;;;23.40;99.90;;;;;;5067484;28;20011;-73
2022/06/06 05:28:59;;;;;;;;;;;;;;;;;;;;;
2022/06/06 05:31:28;;;;;;;;;;;23.60;99.90;;;;;;5092515;28;20305;-71
2022/06/06 05:34:14;;;;;;;;;;;23.60;99.90;;;;;;5070894;28;19913;-70
2022/06/06 05:36:40;;;;;;;;;;;23.70;99.90;;;;;;5069875;28;19993;-73
2022/06/06 05:39:18;;;;;;;;;;;23.70;99.90;;;;;;5069638;28;19916;-72
2022/06/06 05:42:02;;;;;;;;;;;23.70;99.90;;;;;;5063370;28;20270;-72
2022/06/06 05:44:33;;;;;;;;;;;23.70;99.90;;;;;;5058858;28;19984;-72
2022/06/06 05:47:19;;;;;;;;;;;23.80;99.90;;;;;;5060494;28;19908;-72
2022/06/06 05:50:12;;;;;;;;;;;23.80;99.90;;;;;;5068676;28;20385;-73
2022/06/06 05:52:43;;;;;;;;;;;23.90;99.90;;;;;;5064814;28;20427;-72
2022/06/06 05:55:28;;;;;;;;;;;24.00;99.90;;;;;;5074102;28;19966;-72
2022/06/06 05:58:12;;;;;;;;;;;24.10;99.90;;;;;;5069501;28;19912;-72
2022/06/06 06:00:47;;;;;;;;;;;24.20;99.90;;;;;;5070479;28;20377;-72
2022/06/06 06:03:26;;;;;;;;;;;24.30;99.90;;;;;;5081274;28;20007;-71
2022/06/06 06:05:52;;;;;;;;;;;24.30;99.90;;;;;;5066137;28;19908;-72
2022/06/06 06:08:36;;;;;;;;;;;24.40;99.90;;;;;;5071323;28;19920;-72
2022/06/06 06:11:02;;;;;;;;;;;24.40;99.90;;;;;;5057333;28;20378;-71
2022/06/06 06:13:40;;;;;;;;;;;24.40;99.90;;;;;;5082949;28;19915;-71
2022/06/06 06:16:06;;;;;;;;;;;24.40;99.90;;;;;;5056604;28;19920;-71
2022/06/06 06:18:36;;;;;;;;;;;24.50;99.90;;;;;;5068637;28;20425;-72
2022/06/06 06:21:05;;;;;;;;;;;24.50;99.90;;;;;;5083177;28;19958;-67
2022/06/06 06:23:32;;;;;;;;;;;24.60;99.90;;;;;;5064984;28;20334;-68
2022/06/06 06:26:00;;;;;;;;;;;24.70;99.90;;;;;;5064452;28;20370;-68
2022/06/06 06:28:26;;;;;;;;;;;24.60;99.90;;;;;;5063428;28;19953;-67
2022/06/06 06:31:02;;;;;;;;;;;24.60;99.90;;;;;;5065208;28;19920;-70
2022/06/06 06:33:41;;;;;;;;;;;24.70;99.90;;;;;;5069416;28;19912;-67
2022/06/06 06:36:07;;;;;;;;;;;24.70;99.90;;;;;;5064211;28;20019;-69
2022/06/06 06:38:36;;;;;;;;;;;24.80;99.90;;;;;;5067369;28;20316;-67
2022/06/06 06:41:05;;;;;;;;;;;24.90;99.90;;;;;;5062968;28;19920;-69
2022/06/06 06:43:46;;;;;;;;;;;25.00;99.90;;;;;;5065277;28;19916;-67
2022/06/06 06:46:35;;;;;;;;;;;25.10;99.90;;;;;;5066826;28;19912;-67
2022/06/06 06:49:09;;;;;;;;;;;25.20;99.90;;;;;;5035981;28;19916;-70
2022/06/06 06:51:41;;;;;;;;;;;25.20;99.90;;;;;;5082496;28;19923;-70
2022/06/06 06:54:25;;;;;;;;;;;25.30;99.90;;;;;;5062475;28;19912;-69
2022/06/06 06:56:54;;;;;;;;;;;25.30;99.90;;;;;;5066473;28;20308;-67
2022/06/06 06:59:29;;;;;;;;;;;25.40;99.90;;;;;;5086228;28;19951;-68
2022/06/06 07:08:43;;;;;;;;;;;25.60;99.90;;;;;;5018424;28;20000;-69
2022/06/06 07:11:09;;;;;;;;;;;25.60;99.90;;;;;;5070640;28;20002;-69
2022/06/06 07:13:44;;;;;;;;;;;25.60;99.90;;;;;;5055680;28;20024;-69
2022/06/06 07:16:23;;;;;;;;;;;25.70;99.90;;;;;;5072578;28;19912;-68
2022/06/06 07:19:01;;;;;;;;;;;25.80;99.90;;;;;;5053883;28;19923;-68
2022/06/06 07:21:27;;;;;;;;;;;25.80;99.90;;;;;;5055714;28;19995;-69
2022/06/06 07:23:56;;;;;;;;;;;25.70;99.90;;;;;;5070909;28;20289;-67
2022/06/06 07:26:22;;;;;;;;;;;25.70;99.90;;;;;;5074504;28;19927;-68
2022/06/06 07:28:47;;;;;;;;;;;25.70;99.90;;;;;;5067190;28;19922;-68
2022/06/06 07:31:20;;;;;;;;;;;25.90;99.90;;;;;;5066695;28;20327;-68
2022/06/06 07:33:55;;;;;;;;;;;25.90;99.90;;;;;;5065732;28;19920;-67
2022/06/06 07:36:27;;;;;;;;;;;26.00;99.90;;;;;;5061289;28;19974;-66
2022/06/06 07:38:58;;;;;;;;;;;26.10;99.90;;;;;;5071149;28;19964;-70
2022/06/06 07:41:35;;;;;;;;;;;26.10;99.90;;;;;;5070327;28;19912;-67
2022/06/06 07:44:10;;;;;;;;;;;26.30;99.90;;;;;;5068466;28;19909;-67
2022/06/06 07:46:39;;;;;;;;;;;26.40;99.90;;;;;;5069754;28;19920;-67
2022/06/06 07:49:07;;;;;;;;;;;26.40;99.90;;;;;;5063819;28;19912;-68
2022/06/06 07:51:39;;;;;;;;;;;26.30;99.90;;;;;;5077625;28;19912;-66
2022/06/06 07:54:27;;;;;;;;;;;26.40;99.90;;;;;;5060826;28;19913;-66
2022/06/06 07:56:53;;;;;;;;;;;26.40;99.90;;;;;;5059724;28;20344;-66
2022/06/06 07:59:37;;;;;;;;;;;26.60;99.90;;;;;;5066850;28;19909;-67
2022/06/06 08:02:06;;;;;;;;;;;26.70;99.90;;;;;;5065711;28;20300;-68
2022/06/06 08:04:31;;;;;;;;;;;26.70;99.90;;;;;;5082077;28;19912;-68
2022/06/06 08:07:17;;;;;;;;;;;26.60;99.90;;;;;;5067687;28;19916;-67
2022/06/06 08:09:49;;;;;;;;;;;26.70;99.90;;;;;;5058396;28;19969;-66
2022/06/06 08:12:24;;;;;;;;;;;26.80;99.90;;;;;;5067326;28;19924;-68
2022/06/06 08:14:58;;;;;;;;;;;26.60;99.90;;;;;;5058544;28;19934;-67
2022/06/06 08:17:33;;;;;;;;;;;26.50;99.90;;;;;;5074342;28;19916;-67
2022/06/06 08:20:01;;;;;;;;;;;26.70;99.90;;;;;;5079451;28;20049;-67
2022/06/06 08:22:29;;;;;;;;;;;26.70;99.90;;;;;;5060570;28;20338;-72
2022/06/06 08:24:57;;;;;;;;;;;26.70;99.90;;;;;;5060957;28;19923;-68
2022/06/06 08:27:24;;;;;;;;;;;26.80;99.90;;;;;;5081135;28;19912;-68
2022/06/06 08:29:49;;;;;;;;;;;26.80;99.90;;;;;;5075220;28;19912;-68
2022/06/06 08:32:15;;;;;;;;;;;26.80;99.90;;;;;;5067027;28;20385;-72
2022/06/06 08:34:41;;;;;;;;;;;26.80;99.90;;;;;;5075451;28;19912;-68
2022/06/06 08:37:16;;;;;;;;;;;26.90;99.90;;;;;;5075510;28;20437;-67
2022/06/06 08:39:51;;;;;;;;;;;26.90;99.90;;;;;;5073768;28;20358;-67
2022/06/06 08:42:30;;;;;;;;;;;27.00;99.90;;;;;;5062650;28;19912;-68
2022/06/06 08:44:56;;;;;;;;;;;27.00;99.90;;;;;;5101024;28;19920;-69
2022/06/06 08:47:30;;;;;;;;;;;27.00;99.90;;;;;;5066920;28;20281;-69
2022/06/06 08:53:03;;;;;;;;;;;27.10;99.90;;;;;;5063839;28;20419;-68
2022/06/06 08:55:35;;;;;;;;;;;27.20;99.90;;;;;;5067221;28;19920;-71
2022/06/06 08:58:10;;;;;;;;;;;27.40;99.90;;;;;;5072887;28;20557;-67
2022/06/06 09:00:55;;;;;;;;;;;27.50;99.90;;;;;;5075047;28;19912;-70
2022/06/06 09:03:30;;;;;;;;;;;27.60;99.90;;;;;;5065864;28;19947;-65
2022/06/06 09:06:14;;;;;;;;;;;27.50;99.90;;;;;;5083981;28;19908;-69
2022/06/06 09:08:46;;;;;;;;;;;27.40;99.90;;;;;;5068931;28;19994;-69
2022/06/06 09:11:21;;;;;;;;;;;27.40;99.90;;;;;;5090736;28;19912;-68
2022/06/06 09:13:49;;;;;;;;;;;27.60;99.90;;;;;;5064629;28;20362;-72
2022/06/06 09:16:38;;;;;;;;;;;27.80;99.90;;;;;;5058873;28;20019;-68
2022/06/06 09:19:22;;;;;;;;;;;27.90;99.90;;;;;;5084784;28;20072;-69
2022/06/06 09:22:07;;;;;;;;;;;27.90;99.90;;;;;;5074579;28;20000;-68
2022/06/06 09:24:45;;;;;;;;;;;27.90;99.90;;;;;;5068390;28;20366;-69
2022/06/06 09:27:29;;;;;;;;;;;27.90;99.90;;;;;;5074174;28;19912;-70
2022/06/06 09:30:06;;;;;;;;;;;28.00;99.90;;;;;;5066996;28;19984;-71
2022/06/06 09:32:38;;;;;;;;;;;28.10;99.90;;;;;;5061644;28;19916;-71
2022/06/06 09:35:22;;;;;;;;;;;28.10;99.90;;;;;;5066906;28;19917;-67
2022/06/06 09:37:52;;;;;;;;;;;28.20;99.90;;;;;;5092980;28;19912;-68
2022/06/06 09:40:32;;;;;;;;;;;28.20;99.90;;;;;;5070067;28;20302;-70
2022/06/06 09:43:13;;;;;;;;;;;28.30;99.90;;;;;;5080873;28;19964;-68
2022/06/06 09:45:39;;;;;;;;;;;28.50;99.90;;;;;;5068115;28;19912;-67
2022/06/06 09:48:10;;;;;;;;;;;28.40;99.90;;;;;;5074531;28;20277;-67
2022/06/06 09:50:49;;;;;;;;;;;28.40;99.90;;;;;;5074205;28;19941;-68
2022/06/06 09:53:26;;;;;;;;;;;28.50;99.90;;;;;;5096591;28;19922;-67
2022/06/06 09:59:03;;;;;;;;;;;28.60;99.90;;;;;;5092904;28;20071;-67
2022/06/06 10:01:37;;;;;;;;;;;28.60;99.90;;;;;;5074037;28;20382;-67
2022/06/06 10:04:02;;;;;;;;;;;28.50;99.90;;;;;;5071811;28;20018;-71
2022/06/06 10:06:46;;;;;;;;;;;28.50;99.90;;;;;;5074319;28;20010;-68
2022/06/06 10:09:46;;;;;;;;;;;28.60;99.90;;;;;;5072457;28;20386;-73
2022/06/06 10:12:17;;;;;;;;;;;28.90;99.90;;;;;;5068172;28;19918;-68
2022/06/06 10:14:46;;;;;;;;;;;29.10;99.90;;;;;;5065669;28;19908;-71
2022/06/06 10:17:15;;;;;;;;;;;29.00;99.90;;;;;;5074006;28;19912;-70
2022/06/06 10:19:49;;;;;;;;;;;29.00;99.90;;;;;;5055506;28;19909;-70
2022/06/06 10:22:33;;;;;;;;;;;29.20;99.90;;;;;;5089989;28;19912;-72
2022/06/06 10:25:17;;;;;;;;;;;29.30;99.90;;;;;;5058233;28;19908;-72
2022/06/06 10:27:58;;;;;;;;;;;29.20;99.90;;;;;;5062140;28;19908;-69
2022/06/06 10:30:27;;;;;;;;;;;29.10;99.90;;;;;;5061969;28;19923;-70
2022/06/06 10:33:11;;;;;;;;;;;29.00;99.90;;;;;;5071404;28;19932;-68
2022/06/06 10:35:44;;;;;;;;;;;29.00;99.90;;;;;;5072562;28;19919;-69
2022/06/06 10:38:16;;;;;;;;;;;29.20;99.90;;;;;;5069840;28;19912;-71
2022/06/06 10:41:00;;;;;;;;;;;29.40;99.90;;;;;;5066231;28;20129;-68
2022/06/06 10:43:27;;;;;;;;;;;29.50;99.90;;;;;;5053275;28;20382;-73
2022/06/06 10:45:58;;;;;;;;;;;29.80;99.90;;;;;;5056308;28;19909;-68
2022/06/06 10:48:30;;;;;;;;;;;29.80;99.90;;;;;;5071014;28;19912;-68
2022/06/06 10:54:11;;;;;;;;;;;29.80;99.90;;;;;;5086537;28;19915;-67
2022/06/06 10:56:40;;;;;;;;;;;29.60;99.90;;;;;;5053180;28;19943;-67
2022/06/06 10:59:05;;;;;;;;;;;29.60;99.90;;;;;;5071703;28;19912;-69
2022/06/06 11:01:49;;;;;;;;;;;29.70;99.90;;;;;;5082047;28;20526;-72
2022/06/06 11:04:33;;;;;;;;;;;29.80;99.90;;;;;;5068979;28;19912;-68
2022/06/06 11:07:00;;;;;;;;;;;30.00;99.90;;;;;;5053028;28;20319;-68
2022/06/06 11:09:31;;;;;;;;;;;30.00;99.90;;;;;;5072989;28;19919;-70
2022/06/06 11:12:16;;;;;;;;;;;30.00;99.90;;;;;;5082988;28;19909;-69
2022/06/06 11:14:45;;;;;;;;;;;30.10;99.90;;;;;;5070604;28;19937;-70
2022/06/06 11:17:11;;;;;;;;;;;30.30;99.90;;;;;;5072968;28;19992;-67
2022/06/06 11:19:49;;;;;;;;;;;30.10;99.90;;;;;;5069222;28;19932;-68
2022/06/06 11:22:24;;;;;;;;;;;30.00;99.90;;;;;;5053102;28;19923;-69
2022/06/06 11:24:50;;;;;;;;;;;30.20;99.90;;;;;;5059712;28;19908;-69
2022/06/06 11:27:17;;;;;;;;;;;30.30;99.90;;;;;;5072689;28;20285;-69
2022/06/06 11:30:02;;;;;;;;;;;30.50;99.90;;;;;;5058698;28;19908;-69
2022/06/06 11:32:28;;;;;;;;;;;30.60;99.90;;;;;;5058172;28;19917;-67
2022/06/06 11:35:08;;;;;;;;;;;30.60;99.90;;;;;;5089721;28;19919;-69
2022/06/06 11:37:42;;;;;;;;;;;30.40;99.90;;;;;;5085325;28;19916;-70
2022/06/06 11:40:20;;;;;;;;;;;30.40;99.90;;;;;;5065055;28;20014;-68
2022/06/06 11:43:03;;;;;;;;;;;30.40;99.90;;;;;;5066635;28;19916;-68
2022/06/06 11:45:48;;;;;;;;;;;30.30;99.90;;;;;;5062222;28;19919;-68
2022/06/06 11:48:33;;;;;;;;;;;30.40;99.90;;;;;;5065228;28;19909;-70
2022/06/06 11:51:04;;;;;;;;;;;30.40;99.90;;;;;;5066309;28;20285;-69
2022/06/06 11:53:33;;;;;;;;;;;30.50;99.90;;;;;;5069887;28;20251;-71
2022/06/06 11:56:22;;;;;;;;;;;30.40;99.90;;;;;;5062888;28;20334;-69
2022/06/06 11:59:03;;;;;;;;;;;30.60;99.90;;;;;;5057648;28;19915;-70
2022/06/06 12:01:44;;;;;;;;;;;30.80;99.90;;;;;;5070497;28;19913;-70
2022/06/06 12:04:12;;;;;;;;;;;31.00;99.90;;;;;;5068168;28;19920;-71
2022/06/06 12:06:38;;;;;;;;;;;30.90;99.90;;;;;;5070480;28;19916;-70
2022/06/06 12:09:16;;;;;;;;;;;30.90;99.90;;;;;;5068932;28;21555;-69
2022/06/06 12:11:53;;;;;;;;;;;30.90;99.90;;;;;;5064040;28;20490;-70
2022/06/06 12:14:38;;;;;;;;;;;30.80;99.90;;;;;;5063801;28;19920;-69
2022/06/06 12:17:09;;;;;;;;;;;30.80;99.90;;;;;;5061046;28;19920;-68
2022/06/06 12:19:47;;;;;;;;;;;30.80;99.90;;;;;;5063467;28;19916;-68
2022/06/06 12:22:16;;;;;;;;;;;30.80;99.90;;;;;;5069184;28;19969;-70
2022/06/06 12:24:54;;;;;;;;;;;30.90;99.90;;;;;;5067477;28;19920;-71
2022/06/06 12:27:20;;;;;;;;;;;31.10;99.90;;;;;;5068167;28;19913;-69
2022/06/06 12:29:59;;;;;;;;;;;31.30;99.90;;;;;;5089047;28;19914;-72
2022/06/06 12:32:25;;;;;;;;;;;31.20;99.90;;;;;;5067825;28;19921;-68
2022/06/06 12:34:57;;;;;;;;;;;31.10;99.90;;;;;;5067817;28;19939;-70
2022/06/06 12:37:25;;;;;;;;;;;31.10;99.90;;;;;;5069778;28;19916;-70
2022/06/06 12:40:03;;;;;;;;;;;31.30;99.90;;;;;;5087179;28;19908;-69
2022/06/06 12:42:35;;;;;;;;;;;31.60;99.90;;;;;;5070970;28;19919;-69
2022/06/06 12:45:21;;;;;;;;;;;31.90;99.90;;;;;;5066873;28;19996;-69
2022/06/06 12:47:57;;;;;;;;;;;31.80;99.90;;;;;;5081944;28;19997;-70
2022/06/06 12:50:49;;;;;;;;;;;32.00;99.90;;;;;;5070096;28;19912;-68
2022/06/06 12:53:32;;;;;;;;;;;32.00;99.90;;;;;;5040705;28;20011;-69
2022/06/06 12:56:25;;;;;;;;;;;31.80;99.90;;;;;;5065764;28;19916;-69
2022/06/06 12:58:57;;;;;;;;;;;31.70;99.90;;;;;;5070883;28;19916;-72
2022/06/06 13:01:38;;;;;;;;;;;31.50;99.90;;;;;;5064165;28;19920;-68
2022/06/06 13:04:12;;;;;;;;;;;31.40;99.90;;;;;;5055615;28;20353;-70
2022/06/06 13:06:57;;;;;;;;;;;31.30;99.90;;;;;;5088454;28;20392;-68
2022/06/06 13:09:31;;;;;;;;;;;31.50;99.90;;;;;;5056063;28;20286;-68
2022/06/06 13:12:05;;;;;;;;;;;31.50;99.90;;;;;;5066615;28;19912;-68
2022/06/06 13:14:37;;;;;;;;;;;31.70;99.90;;;;;;5055245;28;19966;-68
2022/06/06 13:17:05;;;;;;;;;;;31.70;99.90;;;;;;5070179;28;19942;-67
2022/06/06 13:19:50;;;;;;;;;;;31.60;99.90;;;;;;5066526;28;19913;-67
2022/06/06 13:22:25;;;;;;;;;;;31.80;99.90;;;;;;5063790;28;19912;-71
2022/06/06 13:25:09;;;;;;;;;;;31.50;99.90;;;;;;5067213;28;19919;-66
2022/06/06 13:27:51;;;;;;;;;;;31.50;99.90;;;;;;5085709;28;20022;-66
2022/06/06 13:30:19;;;;;;;;;;;31.30;99.70;;;;;;5068832;28;19912;-66
2022/06/06 13:33:09;;;;;;;;;;;31.40;99.90;;;;;;5067252;28;19927;-65
2022/06/06 13:35:43;;;;;;;;;;;31.70;99.90;;;;;;5057384;28;19920;-64
2022/06/06 13:38:11;;;;;;;;;;;32.00;98.90;;;;;;5066654;28;20373;-66
2022/06/06 13:40:44;;;;;;;;;;;32.20;99.00;;;;;;5064839;28;20362;-65
2022/06/06 13:43:29;;;;;;;;;;;32.40;99.10;;;;;;5061559;28;19912;-68
2022/06/06 13:46:13;;;;;;;;;;;31.90;99.70;;;;;;5068505;28;19923;-71
2022/06/06 13:48:57;;;;;;;;;;;31.20;99.90;;;;;;5069992;28;19966;-68
2022/06/06 13:51:42;;;;;;;;;;;31.50;99.90;;;;;;5075131;28;19939;-69
2022/06/06 13:54:29;;;;;;;;;;;31.90;99.90;;;;;;5074328;28;19908;-70
2022/06/06 13:57:15;;;;;;;;;;;32.30;99.70;;;;;;5064600;28;20470;-71
2022/06/06 13:59:56;;;;;;;;;;;32.70;98.80;;;;;;5084698;28;19948;-69
2022/06/06 14:02:28;;;;;;;;;;;32.30;99.10;;;;;;5073141;28;19920;-70
2022/06/06 14:05:05;;;;;;;;;;;32.10;98.70;;;;;;5075588;28;19908;-70
2022/06/06 14:07:34;;;;;;;;;;;32.00;99.10;;;;;;5065811;28;20285;-71
2022/06/06 14:10:10;;;;;;;;;;;32.20;98.40;;;;;;5064114;28;19955;-69
2022/06/06 14:12:36;;;;;;;;;;;32.00;98.10;;;;;;5078066;28;19912;-68
2022/06/06 14:15:05;;;;;;;;;;;31.70;99.00;;;;;;5068095;28;19973;-69
2022/06/06 14:17:32;;;;;;;;;;;31.40;99.20;;;;;;5062430;28;19913;-68
2022/06/06 14:20:06;;;;;;;;;;;31.50;99.90;;;;;;5068829;28;19912;-69
2022/06/06 14:22:34;;;;;;;;;;;31.60;99.40;;;;;;5060823;28;19912;-70
2022/06/06 14:25:01;;;;;;;;;;;31.80;99.90;;;;;;5061887;28;20593;-69
2022/06/06 14:27:27;;;;;;;;;;;31.90;99.30;;;;;;5064935;28;19919;-68
2022/06/06 14:30:00;;;;;;;;;;;31.90;99.30;;;;;;5063352;28;19909;-68
2022/06/06 14:32:27;;;;;;;;;;;31.80;98.80;;;;;;5060121;28;19922;-71
2022/06/06 14:34:54;;;;;;;;;;;32.00;98.90;;;;;;5064428;28;19927;-69
2022/06/06 14:37:24;;;;;;;;;;;32.30;98.50;;;;;;5070543;28;19924;-72
2022/06/06 14:39:51;;;;;;;;;;;32.40;98.90;;;;;;5064725;28;20011;-69
2022/06/06 14:42:19;;;;;;;;;;;32.30;98.30;;;;;;5064954;28;19916;-68
2022/06/06 14:44:48;;;;;;;;;;;32.10;98.70;;;;;;5063362;28;20057;-70
2022/06/06 14:47:13;;;;;;;;;;;32.10;98.80;;;;;;5067967;28;20029;-69
2022/06/06 14:49:41;;;;;;;;;;;32.20;98.50;;;;;;5064110;28;20323;-70
2022/06/06 14:52:09;;;;;;;;;;;32.50;98.80;;;;;;5081768;28;19912;-70
2022/06/06 14:54:36;;;;;;;;;;;32.30;99.90;;;;;;5068527;28;19919;-69
2022/06/06 14:57:04;;;;;;;;;;;32.00;99.90;;;;;;5083412;28;19924;-68
2022/06/06 14:59:42;;;;;;;;;;;31.30;99.90;;;;;;5062805;28;20386;-69
2022/06/06 15:02:11;;;;;;;;;;;30.70;99.90;;;;;;5068054;28;19912;-69
2022/06/06 15:04:37;;;;;;;;;;;30.20;99.90;;;;;;5070219;28;19927;-72
2022/06/06 15:07:02;;;;;;;;;;;30.00;99.90;;;;;;5073362;28;19999;-70
2022/06/06 15:09:34;;;;;;;;;;;29.70;99.90;;;;;;5075975;28;19966;-74
2022/06/06 15:12:00;;;;;;;;;;;29.50;99.90;;;;;;5069573;28;19916;-70
2022/06/06 15:14:32;;;;;;;;;;;29.70;99.90;;;;;;5062181;28;19912;-70
2022/06/06 15:16:58;;;;;;;;;;;29.70;99.90;;;;;;5065804;28;19916;-70
2022/06/06 15:19:45;;;;;;;;;;;29.80;99.90;;;;;;5065497;28;19912;-70
2022/06/06 15:22:18;;;;;;;;;;;29.80;99.90;;;;;;5078000;28;19912;-70
2022/06/06 15:24:52;;;;;;;;;;;29.70;99.90;;;;;;5070101;28;19916;-73